Time;durP1;ratioP1;P1;durP2;ratioP2;P2;SDS_P1;SDS_P2;PMS_P1;PMS_P2;Temp;Humidity;BMP_temperature;BMP_pressure;BME280_temperature;BME280_humidity;BME280_pressure;Samples;Min_cycle;Max_cycle;Signal;HPM_P1;HPM_P2
2022/10/04 00:01:59;;;;;;;2.75;1.15;;;;;;;13.31;55.81;99414.53;4922182;29;20478;-91
2022/10/04 00:04:33;;;;;;;4.15;1.00;;;;;;;13.27;56.75;99420.78;4890162;29;20028;-91
2022/10/04 00:07:02;;;;;;;4.18;0.90;;;;;;;13.24;55.83;99402.41;4905638;29;20028;-92
2022/10/04 00:09:35;;;;;;;2.70;0.82;;;;;;;13.13;56.06;99391.69;4887386;29;20395;-91
2022/10/04 00:12:00;;;;;;;2.25;0.80;;;;;;;13.20;56.28;99404.06;4918280;29;20036;-91
2022/10/04 00:14:31;;;;;;;3.28;0.75;;;;;;;13.28;56.49;99408.84;4905530;29;20475;-91
2022/10/04 00:16:58;;;;;;;2.27;0.90;;;;;;;13.18;57.16;99395.44;4906311;29;20024;-91
2022/10/04 00:19:38;;;;;;;1.50;0.88;;;;;;;13.29;55.98;99403.19;4918458;29;20092;-91
2022/10/04 00:22:07;;;;;;;2.25;1.40;;;;;;;13.39;56.40;99425.84;4902251;29;20044;-91
2022/10/04 00:24:33;;;;;;;1.48;0.90;;;;;;;13.22;56.20;99410.00;4919323;29;20031;-91
2022/10/04 00:27:09;;;;;;;1.60;0.88;;;;;;;13.26;56.29;99413.75;4921238;29;20131;-92
2022/10/04 00:29:36;;;;;;;1.77;0.80;;;;;;;13.10;56.63;99402.28;4905488;29;20031;-91
2022/10/04 00:32:10;;;;;;;1.98;0.90;;;;;;;13.16;57.04;99422.78;4890037;29;20514;-90
2022/10/04 00:34:47;;;;;;;2.72;0.95;;;;;;;13.08;56.75;99410.66;4910949;29;20494;-91
2022/10/04 00:37:13;;;;;;;2.63;0.90;;;;;;;12.89;58.38;99401.66;4887041;29;20036;-91
2022/10/04 00:39:41;;;;;;;1.60;0.80;;;;;;;12.92;57.58;99401.06;4898490;29;20036;-91
2022/10/04 00:42:15;;;;;;;2.75;0.80;;;;;;;12.97;58.96;99419.97;4906221;29;20032;-90
2022/10/04 00:44:52;;;;;;;1.95;0.85;;;;;;;13.00;58.64;99413.19;4921244;29;20058;-91
2022/10/04 00:47:42;;;;;;;2.35;0.90;;;;;;;12.94;58.02;99418.63;4921582;29;20031;-90
2022/10/04 00:50:27;;;;;;;1.70;0.90;;;;;;;12.90;58.63;99412.16;4920754;29;20040;-91
2022/10/04 00:52:54;;;;;;;1.75;0.98;;;;;;;12.87;59.03;99422.75;4920633;29;20042;-90
2022/10/04 00:55:35;;;;;;;1.33;0.90;;;;;;;12.80;58.71;99411.44;4918188;29;20023;-90
2022/10/04 00:58:01;;;;;;;4.03;1.00;;;;;;;12.92;59.17;99420.78;4905537;29;20504;-91
2022/10/04 01:00:30;;;;;;;2.97;0.93;;;;;;;12.67;58.38;99400.19;4902963;29;20027;-91
2022/10/04 01:03:03;;;;;;;2.72;1.30;;;;;;;12.67;59.03;99405.59;4904305;29;20505;-91
2022/10/04 01:05:36;;;;;;;4.32;1.10;;;;;;;12.61;58.81;99395.09;4902811;29;20100;-91
2022/10/04 01:08:03;;;;;;;1.23;0.73;;;;;;;12.66;59.07;99412.09;4902046;29;20035;-92
2022/10/04 01:10:30;;;;;;;3.60;0.80;;;;;;;12.65;59.54;99413.16;4919437;29;20028;-91
2022/10/04 01:13:18;;;;;;;2.33;0.90;;;;;;;12.76;59.83;99424.69;4904573;29;20035;-92
2022/10/04 01:16:21;;;;;;;1.33;0.80;;;;;;;12.85;58.55;99439.22;4918516;29;20039;-91
2022/10/04 01:18:46;;;;;;;2.13;0.90;;;;;;;12.81;59.45;99437.38;4847831;29;20088;-91
2022/10/04 01:21:18;;;;;;;0.93;0.70;;;;;;;12.61;60.64;99433.72;4909271;29;20044;-92
2022/10/04 01:23:47;;;;;;;1.33;0.88;;;;;;;12.67;59.36;99427.19;4922765;29;20447;-91
2022/10/04 01:26:28;;;;;;;2.38;0.73;;;;;;;12.54;60.39;99433.25;4935738;29;20039;-91
2022/10/04 01:28:59;;;;;;;1.65;0.90;;;;;;;12.45;60.38;99429.50;4931982;29;20032;-91
2022/10/04 01:31:28;;;;;;;1.38;0.70;;;;;;;12.47;59.64;99430.84;4870018;29;20415;-91
2022/10/04 01:33:54;;;;;;;3.08;0.90;;;;;;;12.52;59.47;99428.09;4890848;29;20024;-92
2022/10/04 01:36:19;;;;;;;2.30;1.00;;;;;;;12.37;60.22;99428.22;4919899;29;20034;-90
2022/10/04 01:38:45;;;;;;;1.92;0.85;;;;;;;12.45;60.86;99437.59;4904874;29;20031;-91
2022/10/04 01:41:11;;;;;;;2.50;0.93;;;;;;;12.30;61.11;99436.59;4888944;29;20375;-91
2022/10/04 01:43:37;;;;;;;2.17;0.85;;;;;;;12.38;61.43;99450.63;4904047;29;20020;-91
2022/10/04 01:46:25;;;;;;;1.77;0.80;;;;;;;12.23;61.64;99440.69;4904228;29;20028;-90
2022/10/04 01:48:50;;;;;;;0.98;0.80;;;;;;;12.16;62.37;99427.50;4885690;29;20024;-90
2022/10/04 01:51:22;;;;;;;4.75;1.15;;;;;;;12.22;61.64;99444.47;4885317;29;20494;-90
2022/10/04 01:54:08;;;;;;;0.85;0.77;;;;;;;12.13;61.80;99434.25;4874027;29;20032;-91
2022/10/04 01:57:23;;;;;;;1.08;0.90;;;;;;;12.11;62.63;99436.41;4888757;29;20034;-91
2022/10/04 01:59:51;;;;;;;2.17;1.00;;;;;;;12.04;61.57;99432.44;4898425;29;20043;-91
2022/10/04 02:02:22;;;;;;;0.88;0.73;;;;;;;12.13;63.34;99449.66;4869655;29;20405;-90
2022/10/04 02:04:55;;;;;;;1.58;0.90;;;;;;;12.11;62.48;99447.22;4912600;29;20539;-90
2022/10/04 02:07:20;;;;;;;1.23;0.80;;;;;;;12.11;62.33;99449.13;4919748;29;20043;-90
2022/10/04 02:09:46;;;;;;;0.70;0.70;;;;;;;11.97;63.13;99440.00;4888162;29;20402;-91
2022/10/04 02:12:16;;;;;;;1.02;0.80;;;;;;;12.06;62.93;99454.56;4903779;29;20036;-90
2022/10/04 02:14:51;;;;;;;0.90;0.80;;;;;;;11.90;62.88;99441.09;4895807;29;20067;-91
2022/10/04 02:17:17;;;;;;;0.80;0.80;;;;;;;12.17;61.71;99433.72;4888673;29;20466;-90
2022/10/04 02:19:43;;;;;;;2.42;0.93;;;;;;;12.25;61.70;99454.72;4896229;29;20095;-91
2022/10/04 02:22:09;;;;;;;3.55;0.85;;;;;;;12.09;61.48;99443.19;4888904;29;20031;-91
2022/10/04 02:24:37;;;;;;;2.97;0.95;;;;;;;12.01;62.53;99436.47;4895896;29;20126;-91
2022/10/04 02:27:03;;;;;;;1.67;1.00;;;;;;;11.97;63.29;99440.00;4903485;29;20554;-90
2022/10/04 02:29:28;;;;;;;1.80;0.90;;;;;;;11.86;62.66;99448.09;4902986;29;20036;-90
2022/10/04 02:34:38;;;;;;;2.08;1.15;;;;;;;11.85;63.76;99456.44;4913717;29;20035;-91
2022/10/04 02:37:03;;;;;;;1.23;0.93;;;;;;;11.65;64.63;99444.66;4903632;29;20536;-90
2022/10/04 02:39:31;;;;;;;3.95;1.33;;;;;;;11.63;64.53;99457.59;4887429;29;20024;-90
2022/10/04 02:42:02;;;;;;;1.10;0.93;;;;;;;11.58;65.09;99479.19;4903123;29;20035;-92
2022/10/04 02:44:41;;;;;;;3.33;1.17;;;;;;;11.35;65.60;99467.09;4903422;29;20038;-90
2022/10/04 02:47:17;;;;;;;1.75;1.05;;;;;;;11.36;66.17;99490.28;4903117;29;20466;-91
2022/10/04 02:49:57;;;;;;;3.78;1.00;;;;;;;11.25;66.43;99483.28;4911600;29;20028;-90
2022/10/04 02:52:26;;;;;;;2.22;1.00;;;;;;;11.23;66.09;99480.84;4889156;29;20447;-90
2022/10/04 02:55:01;;;;;;;3.67;1.23;;;;;;;11.30;65.89;99483.25;4903943;29;20051;-90
2022/10/04 02:57:27;;;;;;;3.20;1.10;;;;;;;11.25;66.53;99481.38;4904882;29;20042;-90
2022/10/04 03:00:21;;;;;;;1.45;1.23;;;;;;;11.18;67.20;99474.63;4903419;29;20050;-90
2022/10/04 03:03:11;;;;;;;2.13;1.13;;;;;;;11.23;67.36;99493.53;4905582;29;20107;-91
2022/10/04 03:05:37;;;;;;;3.83;1.20;;;;;;;11.02;67.10;99471.94;4900328;29;20032;-90
2022/10/04 03:08:03;;;;;;;1.58;1.02;;;;;;;11.07;67.30;99480.03;4869243;29;20106;-89
2022/10/04 03:10:29;;;;;;;3.00;1.10;;;;;;;11.01;67.21;99475.72;4885846;29;20028;-90
2022/10/04 03:12:54;;;;;;;2.67;1.20;;;;;;;11.07;66.87;99481.91;4918895;29;20146;-90
2022/10/04 03:15:20;;;;;;;2.60;1.50;;;;;;;11.05;66.88;99481.38;4903284;29;20406;-91
2022/10/04 03:17:45;;;;;;;1.92;1.00;;;;;;;11.17;65.95;99486.50;4903289;29;20505;-91
2022/10/04 03:20:14;;;;;;;2.70;1.17;;;;;;;11.20;65.18;99483.25;4904715;29;20035;-90
2022/10/04 03:22:40;;;;;;;1.52;0.90;;;;;;;11.32;65.07;99492.69;4880440;29;20030;-90
2022/10/04 03:25:09;;;;;;;1.30;0.90;;;;;;;11.31;65.69;99485.69;4918022;29;20046;-90
2022/10/04 03:27:35;;;;;;;1.75;0.90;;;;;;;11.30;65.97;99500.22;4918896;29;20063;-91
2022/10/04 03:30:00;;;;;;;3.10;1.23;;;;;;;11.17;66.47;99489.19;4902540;29;20023;-90
2022/10/04 03:32:29;;;;;;;1.90;1.10;;;;;;;11.13;66.41;99497.81;4918210;29;20486;-91
2022/10/04 03:35:02;;;;;;;1.98;1.38;;;;;;;11.09;66.27;99502.13;4918616;29;20114;-90
2022/10/04 03:37:28;;;;;;;4.18;1.05;;;;;;;11.06;66.48;99491.91;4918824;29;20038;-90
2022/10/04 03:39:54;;;;;;;2.20;1.50;;;;;;;11.08;66.03;99503.22;4902126;29;20578;-90
2022/10/04 03:42:44;;;;;;;3.92;1.52;;;;;;;11.07;66.62;99498.09;4902276;29;20409;-91
2022/10/04 03:45:14;;;;;;;6.03;1.25;;;;;;;11.01;67.36;99493.78;4911462;29;20091;-90
2022/10/04 03:47:42;;;;;;;2.42;1.42;;;;;;;10.96;67.26;99497.28;4868272;29;20503;-89
2022/10/04 03:50:35;;;;;;;3.15;1.30;;;;;;;10.95;67.44;99522.59;4883613;29;20035;-89
2022/10/04 03:53:03;;;;;;;3.13;1.98;;;;;;;10.85;68.72;99525.25;4880612;29;20127;-89
2022/10/04 03:55:46;;;;;;;2.88;1.33;;;;;;;10.70;68.30;99524.13;4883767;29;20127;-89
2022/10/04 03:58:13;;;;;;;2.58;1.40;;;;;;;10.64;68.82;99522.50;4883398;29;20117;-90
2022/10/04 04:00:41;;;;;;;2.15;1.27;;;;;;;10.69;68.54;99535.19;4891289;29;20057;-90
2022/10/04 04:03:07;;;;;;;2.78;2.13;;;;;;;10.57;70.04;99529.25;4868135;29;20446;-89
2022/10/04 04:05:39;;;;;;;3.78;2.00;;;;;;;10.45;69.70;99527.56;4868421;29;20032;-90
2022/10/04 04:08:41;;;;;;;10.52;2.65;;;;;;;10.63;70.66;99552.41;4872740;29;20023;-91
2022/10/04 04:11:13;;;;;;;5.22;2.38;;;;;;;10.55;70.61;99536.78;4851125;29;20029;-90
2022/10/04 04:13:48;;;;;;;;;;;;;;;10.57;70.87;99553.47;4907374;29;20037;-90
2022/10/04 04:16:18;;;;;;;5.35;1.95;;;;;;;10.42;70.50;99530.00;4914466;29;20378;-90
2022/10/04 04:18:43;;;;;;;4.75;1.75;;;;;;;10.45;70.14;99526.75;4880818;29;20175;-90
2022/10/04 04:21:09;;;;;;;2.75;1.60;;;;;;;10.55;70.70;99545.66;4896642;29;20061;-91
2022/10/04 04:23:49;;;;;;;2.58;1.70;;;;;;;10.49;70.70;99530.53;4902375;29;20032;-89
2022/10/04 04:26:21;;;;;;;2.78;1.50;;;;;;;10.47;71.04;99535.38;4903820;29;20090;-90
2022/10/04 04:28:57;;;;;;;4.75;2.45;;;;;;;10.48;70.54;99535.13;4902353;29;20024;-90
2022/10/04 04:31:25;;;;;;;4.05;2.30;;;;;;;10.58;70.34;99544.31;4902871;29;20028;-89
2022/10/04 04:34:01;;;;;;;4.45;2.75;;;;;;;10.76;69.88;99570.75;4905459;29;20038;-93
2022/10/04 04:36:28;;;;;;;4.38;2.33;;;;;;;10.67;69.82;99561.59;4887259;29;20034;-92
2022/10/04 04:41:56;;;;;;;5.25;2.88;;;;;;;10.60;69.88;99542.97;4929664;29;20039;-90
2022/10/04 04:44:28;;;;;;;14.48;4.80;;;;;;;10.69;70.44;99562.94;4918092;29;20024;-90
2022/10/04 04:46:55;;;;;;;6.60;2.70;;;;;;;10.70;69.51;99561.03;4901836;29;20099;-90
2022/10/04 04:49:22;;;;;;;9.13;2.22;;;;;;;10.74;69.50;99558.63;4898059;29;20063;-91
2022/10/04 04:51:50;;;;;;;11.93;2.22;;;;;;;10.81;69.25;99572.66;4901439;29;20028;-90
2022/10/04 04:54:18;;;;;;;3.45;2.58;;;;;;;10.83;70.05;99575.88;4937476;29;20111;-90
2022/10/04 04:56:52;;;;;;;6.43;3.05;;;;;;;10.73;70.12;99571.31;4893606;29;20035;-91
2022/10/04 04:59:18;;;;;;;6.97;2.80;;;;;;;10.77;70.09;99580.47;4893843;29;20023;-91
2022/10/04 05:01:45;;;;;;;14.27;5.35;;;;;;;10.75;70.19;99571.84;4932531;29;20024;-91
2022/10/04 05:04:13;;;;;;;7.50;3.40;;;;;;;10.90;69.72;99600.72;4921206;29;20455;-92
2022/10/04 05:07:02;;;;;;;7.05;3.13;;;;;;;10.86;69.87;99599.63;5060473;27;1415330;-92
2022/10/04 05:09:39;;;;;;;5.10;2.70;;;;;;;10.94;68.91;99595.59;5073296;28;20090;-92
2022/10/04 05:12:19;;;;;;;5.25;3.33;;;;;;;11.13;69.09;99605.59;5073042;28;20482;-95
2022/10/04 05:14:47;;;;;;;5.05;2.53;;;;;;;11.11;68.00;99580.00;5073016;28;20017;-92
2022/10/04 05:17:31;;;;;;;11.57;2.42;;;;;;;11.22;69.04;99578.94;5056334;28;20024;-94
2022/10/04 05:19:59;;;;;;;14.93;10.30;;;;;;;11.37;68.08;99578.16;5057662;28;20123;-91
2022/10/04 05:22:24;;;;;;;7.75;4.57;;;;;;;11.50;67.26;99593.00;5044472;28;20025;-93
2022/10/04 05:24:55;;;;;;;5.45;2.40;;;;;;;11.52;67.13;99586.25;5073399;28;20058;-94
2022/10/04 05:28:10;;;;;;;5.00;2.40;;;;;;;11.61;66.47;99570.34;5073899;28;20586;-93
2022/10/04 05:30:54;;;;;;;3.45;1.80;;;;;;;11.87;65.38;99602.69;4982418;28;20034;-93
2022/10/04 05:34:36;;;;;;;;;;;;;;;;;;;;;
2022/10/04 05:47:21;;;;;;;3.30;1.50;;;;;;;12.27;62.47;99595.66;5049139;28;20068;-96
2022/10/04 05:49:54;;;;;;;2.88;1.63;;;;;;;12.30;63.27;99598.59;5056167;28;20033;-94
2022/10/04 05:52:32;;;;;;;88.97;51.30;;;;;;;12.45;63.37;99605.88;5071222;28;20028;-91
2022/10/04 05:55:36;;;;;;;12.93;7.93;;;;;;;12.70;62.30;99621.16;5053645;28;20044;-91
2022/10/04 05:58:24;;;;;;;9.70;3.00;;;;;;;12.70;63.09;99617.63;5069246;28;20028;-96
2022/10/04 06:01:09;;;;;;;2.47;1.55;;;;;;;12.71;62.64;99616.56;5067113;28;20028;-93
2022/10/04 06:03:54;;;;;;;2.08;1.50;;;;;;;12.78;61.48;99617.06;5067419;28;20039;-93
2022/10/04 06:06:39;;;;;;;1.30;1.08;;;;;;;12.68;61.35;99611.72;5052839;28;20788;-93
2022/10/04 06:09:35;;;;;;;2.47;1.48;;;;;;;12.88;61.97;99632.44;5050965;28;20041;-92
2022/10/04 06:12:05;;;;;;;1.88;1.23;;;;;;;12.93;61.22;99619.72;5084944;28;20021;-90
2022/10/04 06:15:01;;;;;;;3.88;1.60;;;;;;;13.03;61.06;99626.97;5095793;28;20169;-92
2022/10/04 06:18:10;;;;;;;4.40;1.65;;;;;;;13.22;59.94;99640.66;5064559;28;20513;-92
2022/10/04 06:21:26;;;;;;;1.40;1.10;;;;;;;13.32;59.31;99648.75;5073749;28;20482;-92
2022/10/04 06:24:11;;;;;;;2.35;1.55;;;;;;;13.09;59.79;99649.34;5060755;28;20090;-94
2022/10/04 06:26:47;;;;;;;2.03;1.25;;;;;;;13.08;59.85;99628.84;5040703;28;20410;-95
2022/10/04 06:29:24;;;;;;;1.52;1.20;;;;;;;13.34;58.92;99661.97;5042179;28;20025;-94
2022/10/04 06:32:53;;;;;;;1.95;1.25;;;;;;;13.43;58.58;99663.00;5057835;28;20027;-94
2022/10/04 06:35:39;;;;;;;6.60;1.50;;;;;;;13.31;59.56;99649.81;4995893;28;20021;-93
2022/10/04 06:38:45;;;;;;;1.73;1.20;;;;;;;13.51;59.98;99672.44;4999904;28;20504;-93
2022/10/04 06:41:40;;;;;;;5.15;3.17;;;;;;;13.60;59.31;99665.31;5054245;28;20444;-92
2022/10/04 06:44:28;;;;;;;2.05;1.13;;;;;;;13.66;57.57;99650.66;5071306;28;20394;-94
2022/10/04 06:47:31;;;;;;;2.38;1.40;;;;;;;13.54;59.59;99669.16;5036510;28;20041;-91
2022/10/04 06:50:35;;;;;;;1.75;1.30;;;;;;;13.61;58.49;99658.81;5060043;28;20036;-92
2022/10/04 06:56:55;;;;;;;1.13;0.85;;;;;;;14.09;57.36;99701.47;5055186;28;20120;-93
2022/10/04 06:59:43;;;;;;;3.67;0.95;;;;;;;14.15;56.80;99698.47;5053893;28;20029;-93
2022/10/04 07:02:16;;;;;;;2.47;1.10;;;;;;;14.19;55.89;99682.44;5053769;28;20060;-93
2022/10/04 07:05:38;;;;;;;2.10;1.20;;;;;;;14.37;56.78;99704.50;5023058;28;20033;-96
2022/10/04 07:08:29;;;;;;;3.60;2.47;;;;;;;14.27;56.17;99695.38;5056195;28;20037;-93
2022/10/04 07:11:05;;;;;;;1.05;0.80;;;;;;;14.31;54.52;99695.63;5025259;28;20071;-92
2022/10/04 07:13:57;;;;;;;1.85;0.98;;;;;;;14.26;55.15;99685.66;5036378;28;20179;-93
2022/10/04 07:16:36;;;;;;;2.50;0.90;;;;;;;14.28;55.04;99699.72;5052648;28;20495;-92
2022/10/04 07:19:08;;;;;;;1.92;1.40;;;;;;;14.26;56.35;99704.59;5036425;28;20028;-91
2022/10/04 07:21:54;;;;;;;2.13;1.40;;;;;;;14.18;55.95;99710.63;5059988;28;20056;-96
2022/10/04 07:24:24;;;;;;;2.17;1.17;;;;;;;14.15;55.61;99697.63;5056099;28;20422;-92
2022/10/04 07:26:50;;;;;;;1.50;1.08;;;;;;;14.13;56.44;99692.53;5048493;28;20063;-92
2022/10/04 07:29:25;;;;;;;1.92;1.30;;;;;;;14.31;56.44;99703.75;5073327;28;20060;-91
2022/10/04 07:32:12;;;;;;;5.07;1.25;;;;;;;14.36;55.73;99695.59;5053401;28;20071;-93
2022/10/04 07:34:40;;;;;;;1.60;1.00;;;;;;;14.71;54.20;99737.81;5065364;28;20082;-92
2022/10/04 07:37:11;;;;;;;1.50;1.00;;;;;;;14.49;55.12;99710.34;5055565;28;20058;-93
2022/10/04 07:40:05;;;;;;;2.08;0.98;;;;;;;14.52;54.04;99704.34;5040056;28;20028;-92
2022/10/04 07:42:52;;;;;;;1.77;1.00;;;;;;;14.42;54.88;99707.16;5022618;28;20037;-94
2022/10/04 07:45:25;;;;;;;4.75;3.13;;;;;;;14.54;55.30;99726.56;5072237;28;20090;-92
2022/10/04 07:47:50;;;;;;;3.45;1.30;;;;;;;14.55;54.73;99715.47;5060170;28;20499;-92
2022/10/04 07:50:33;;;;;;;1.60;1.10;;;;;;;14.49;54.83;99711.16;5055184;28;20044;-92
2022/10/04 07:53:36;;;;;;;2.63;1.30;;;;;;;14.74;54.68;99741.84;5046659;28;20024;-90
2022/10/04 07:56:08;;;;;;;2.55;1.30;;;;;;;14.66;54.28;99728.91;5052698;28;20092;-91
2022/10/04 07:59:05;;;;;;;1.80;1.00;;;;;;;14.50;54.15;99728.22;5035149;28;20040;-92
2022/10/04 08:02:06;;;;;;;2.35;0.90;;;;;;;14.75;54.22;99738.84;5000065;28;20521;-92
2022/10/04 08:04:57;;;;;;;1.63;1.00;;;;;;;14.83;54.04;99744.72;5053987;28;20051;-93
2022/10/04 08:11:17;;;;;;;1.50;0.95;;;;;;;14.86;53.21;99739.53;4973725;28;20116;-92
2022/10/04 08:14:08;;;;;;;2.30;0.90;;;;;;;14.85;52.94;99726.28;5036613;28;20071;-92
2022/10/04 08:16:44;;;;;;;2.58;1.27;;;;;;;15.14;52.57;99769.59;5036380;28;20029;-92
2022/10/04 08:19:17;;;;;;;4.00;1.40;;;;;;;14.94;52.69;99713.69;5053009;28;20024;-93
2022/10/04 08:21:49;;;;;;;2.05;1.00;;;;;;;15.11;52.75;99762.06;5039404;28;20028;-93
2022/10/04 08:24:50;;;;;;;6.60;1.30;;;;;;;15.10;53.41;99766.66;5073751;28;20028;-90
2022/10/04 08:27:36;;;;;;;1.60;0.88;;;;;;;15.26;52.24;99763.78;5048502;28;20130;-92
2022/10/04 08:30:09;;;;;;;2.22;1.10;;;;;;;15.27;53.45;99762.66;5044300;28;20111;-91
2022/10/04 08:33:05;;;;;;;2.85;1.20;;;;;;;15.53;51.96;99752.31;5039168;28;20437;-93
2022/10/04 08:36:02;;;;;;;2.13;1.05;;;;;;;15.59;50.79;99762.00;5041887;28;20120;-92
2022/10/04 08:38:45;;;;;;;1.70;1.00;;;;;;;15.44;51.18;99760.28;5072379;28;20441;-93
2022/10/04 08:41:36;;;;;;;1.73;1.20;;;;;;;15.63;51.36;99762.22;5054564;28;20024;-91
2022/10/04 08:44:23;;;;;;;3.20;1.35;;;;;;;15.71;51.12;99770.50;5052902;28;20098;-94
2022/10/04 08:47:13;;;;;;;2.80;1.30;;;;;;;15.63;50.98;99752.16;5053860;28;20056;-94
2022/10/04 08:50:10;;;;;;;1.02;0.90;;;;;;;15.84;49.58;99763.56;5053503;28;20029;-92
2022/10/04 08:53:01;;;;;;;31.05;15.65;;;;;;;15.81;51.05;99752.47;5055177;28;20510;-91
2022/10/04 08:55:52;;;;;;;1.60;1.20;;;;;;;15.82;50.98;99752.19;5041902;28;20035;-91
2022/10/04 08:58:37;;;;;;;1.60;1.00;;;;;;;15.82;49.96;99765.78;5035967;28;20047;-89
2022/10/04 09:04:48;;;;;;;4.00;1.73;;;;;;;15.89;49.70;99752.63;5011308;28;20035;-91
2022/10/04 09:07:23;;;;;;;1.30;1.10;;;;;;;15.73;50.37;99745.81;5059232;28;20039;-89
2022/10/04 09:09:55;;;;;;;1.75;1.08;;;;;;;15.84;49.17;99768.22;5071624;28;20021;-89
2022/10/04 09:12:43;;;;;;;1.77;1.02;;;;;;;15.80;49.10;99778.03;5055069;28;20021;-90
2022/10/04 09:15:25;;;;;;;2.63;0.90;;;;;;;15.94;49.14;99762.63;5056328;28;20020;-93
2022/10/04 09:18:31;;;;;;;1.40;0.93;;;;;;;16.01;48.93;99762.25;5054945;28;20028;-91
2022/10/04 09:21:26;;;;;;;2.85;1.50;;;;;;;16.25;49.00;99764.84;5055306;28;20024;-90
2022/10/04 09:24:01;;;;;;;1.73;1.30;;;;;;;16.31;47.82;99766.38;5045361;28;20028;-93
2022/10/04 09:26:44;;;;;;;3.08;1.17;;;;;;;16.15;47.39;99760.41;5071316;28;20033;-90
2022/10/04 09:30:32;;;;;;;58.45;35.05;;;;;;;16.03;46.76;99760.84;5037489;28;20052;-89
2022/10/04 09:32:45;;;;;;;1.95;1.25;;;;;;;15.96;47.62;99766.66;5030348;28;20036;-90
2022/10/04 09:35:36;;;;;;;2.80;1.33;;;;;;;15.86;47.03;99750.50;5057569;28;20025;-96
2022/10/04 09:39:01;;;;;;;3.97;1.05;;;;;;;15.84;47.72;99757.34;5051319;28;20087;-96
2022/10/04 09:41:56;;;;;;;2.28;1.60;;;;;;;16.23;47.44;99769.75;4962533;28;20034;-95
2022/10/04 09:45:22;;;;;;;1.58;1.00;;;;;;;16.15;46.91;99760.41;4976739;28;20026;-96
2022/10/04 09:47:57;;;;;;;2.70;1.00;;;;;;;16.12;46.35;99748.22;4960881;28;20038;-96
2022/10/04 09:50:50;;;;;;;2.20;1.10;;;;;;;16.03;46.52;99744.53;5037751;28;20045;-95
2022/10/04 09:53:31;;;;;;;3.90;1.10;;;;;;;16.29;47.43;99757.72;5026185;28;20031;-94
2022/10/04 09:56:03;;;;;;;3.58;1.10;;;;;;;16.52;45.41;99772.31;5024464;28;20040;-95
2022/10/04 09:58:50;;;;;;;;;;;;;;;16.56;44.61;99773.31;5041197;28;20032;-96
2022/10/04 10:01:39;;;;;;;0.90;0.80;;;;;;;16.56;43.83;99778.75;5039138;28;19908;-91
2022/10/04 10:04:33;;;;;;;1.33;1.05;;;;;;;16.38;44.64;99760.59;5022124;28;20033;-92
2022/10/04 10:07:36;;;;;;;1.35;0.80;;;;;;;16.33;44.05;99756.84;5081059;28;20505;-90
2022/10/04 10:14:08;;;;;;;1.40;0.80;;;;;;;16.62;43.01;99766.69;5060149;28;20040;-90
2022/10/04 10:16:39;;;;;;;1.42;0.82;;;;;;;16.81;43.09;99763.94;5071668;28;20044;-91
2022/10/04 10:19:32;;;;;;;6.65;1.10;;;;;;;16.75;43.11;99751.50;5057750;28;20089;-92
2022/10/04 10:22:13;;;;;;;1.02;0.70;;;;;;;16.93;42.75;99761.53;5064268;28;20031;-91
2022/10/04 10:25:12;;;;;;;2.73;0.77;;;;;;;17.02;42.34;99752.66;5057517;28;20029;-91
2022/10/04 10:28:24;;;;;;;1.15;0.73;;;;;;;16.96;42.13;99727.47;5019639;28;20041;-92
2022/10/04 10:31:14;;;;;;;1.42;0.82;;;;;;;17.24;40.71;99757.38;5039356;28;20041;-91
2022/10/04 10:34:10;;;;;;;1.02;0.73;;;;;;;17.15;41.47;99735.53;5044677;28;20035;-93
2022/10/04 10:36:48;;;;;;;0.60;0.50;;;;;;;17.43;39.03;99762.72;5043600;28;20044;-92
2022/10/04 10:39:37;;;;;;;1.10;0.70;;;;;;;17.21;40.99;99731.59;5048550;28;20036;-91
2022/10/04 10:42:26;;;;;;;3.58;1.15;;;;;;;17.46;41.55;99753.94;5026188;28;20086;-93
2022/10/04 10:45:17;;;;;;;4.43;1.00;;;;;;;17.35;41.85;99750.63;5057762;28;20036;-94
2022/10/04 10:47:56;;;;;;;1.20;0.88;;;;;;;17.31;40.43;99742.25;5076357;28;20032;-94
2022/10/04 10:51:00;;;;;;;2.58;0.80;;;;;;;17.41;38.97;99764.91;5042372;28;20036;-92
2022/10/04 10:53:58;;;;;;;0.80;0.60;;;;;;;17.43;36.28;99760.81;5075843;28;20439;-94
2022/10/04 10:56:56;;;;;;;1.83;0.60;;;;;;;17.40;38.83;99752.44;5058509;28;20029;-93
2022/10/04 11:00:08;;;;;;;1.10;0.65;;;;;;;17.41;39.79;99763.03;5059494;28;20032;-92
2022/10/04 11:03:15;;;;;;;2.03;0.82;;;;;;;17.20;40.56;99759.09;5074112;28;20024;-92
2022/10/04 11:17:19;;;;;;;1.27;0.73;;;;;;;17.26;38.79;99760.59;5081714;28;20066;-91
2022/10/04 11:20:04;;;;;;;3.67;2.60;;;;;;;17.30;39.64;99750.72;5076624;28;20024;-94
2022/10/04 11:22:43;;;;;;;1.40;0.75;;;;;;;17.39;39.59;99765.25;5056935;28;20064;-92
2022/10/04 11:25:40;;;;;;;0.88;0.70;;;;;;;17.57;40.06;99758.03;5060101;28;20028;-96
2022/10/04 11:29:00;;;;;;;;;;;;;;;;;;;;;
2022/10/04 11:35:52;;;;;;;0.98;0.57;;;;;;;17.71;38.23;99756.09;4960740;29;20027;-94
2022/10/04 11:38:31;;;;;;;1.13;0.63;;;;;;;17.75;39.47;99757.09;4975101;28;20045;-92
2022/10/04 11:41:09;;;;;;;0.75;0.60;;;;;;;17.94;38.81;99745.28;4977149;28;20068;-92
2022/10/04 11:44:13;;;;;;;;;;;;;;;;;;;;;
2022/10/04 11:46:59;;;;;;;0.95;0.60;;;;;;;18.15;37.88;99762.75;5071171;28;20021;-95
2022/10/04 11:49:55;;;;;;;0.82;0.65;;;;;;;18.04;38.37;99742.31;5055402;28;20040;-92
2022/10/04 11:52:24;;;;;;;1.77;0.75;;;;;;;18.02;37.70;99760.09;5012774;28;20037;-94
2022/10/04 11:55:08;;;;;;;1.25;0.70;;;;;;;18.23;38.17;99757.69;5030003;28;20057;-94
2022/10/04 12:01:14;;;;;;;0.98;0.80;;;;;;;18.15;36.97;99742.88;5045241;28;20049;-94
2022/10/04 12:03:58;;;;;;;1.10;0.60;;;;;;;18.35;36.58;99761.44;5013902;28;20491;-93
2022/10/04 12:06:52;;;;;;;4.57;1.60;;;;;;;18.31;37.74;99754.22;5033389;28;20043;-96
2022/10/04 12:10:06;;;;;;;3.53;1.00;;;;;;;18.26;38.70;99763.31;5042397;28;20049;-95
2022/10/04 12:13:00;;;;;;;0.68;0.60;;;;;;;18.17;37.04;99743.34;5052049;28;20041;-96
2022/10/04 12:19:08;;;;;;;2.60;1.30;;;;;;;17.99;38.70;99758.75;5073146;28;20105;-95
2022/10/04 12:22:00;;;;;;;4.78;1.20;;;;;;;17.89;39.19;99757.09;5071053;28;20028;-96
2022/10/04 12:25:06;;;;;;;1.52;0.93;;;;;;;18.08;39.04;99777.94;5039116;28;20044;-96
2022/10/04 12:27:49;;;;;;;1.20;0.80;;;;;;;18.21;38.09;99776.25;5068541;28;20029;-91
2022/10/04 12:30:21;;;;;;;1.20;1.00;;;;;;;17.98;39.17;99754.44;5038135;28;20033;-92
2022/10/04 12:33:25;;;;;;;1.40;0.95;;;;;;;18.13;38.64;99756.00;5029140;28;20020;-95
2022/10/04 12:36:12;;;;;;;0.88;0.60;;;;;;;18.11;38.55;99764.47;5052424;28;20031;-94
2022/10/04 12:38:54;;;;;;;1.90;0.98;;;;;;;17.91;39.86;99756.81;5052285;28;20123;-96
2022/10/04 12:41:45;;;;;;;1.20;0.90;;;;;;;17.72;41.98;99784.97;5073928;28;20037;-96
2022/10/04 12:44:41;;;;;;;2.90;1.05;;;;;;;17.56;43.19;99789.13;5049522;28;20467;-96
2022/10/04 12:47:31;;;;;;;1.80;1.10;;;;;;;17.45;43.57;99791.25;5046926;28;20028;-96
2022/10/04 12:50:07;;;;;;;5.07;1.48;;;;;;;17.23;44.04;99769.41;5081779;28;20053;-96
2022/10/04 12:53:05;;;;;;;1.77;1.00;;;;;;;17.15;44.45;99765.47;5052070;28;20052;-96
2022/10/04 12:56:25;;;;;;;2.10;1.45;;;;;;;17.36;44.82;99790.34;5050274;28;20020;-96
2022/10/04 12:58:59;;;;;;;2.28;1.50;;;;;;;17.41;45.60;99786.69;5067584;28;20095;-95
2022/10/04 13:01:25;;;;;;;3.38;1.65;;;;;;;17.37;46.33;99786.53;5047791;28;20107;-92
2022/10/04 13:04:08;;;;;;;1.95;1.13;;;;;;;17.50;44.52;99785.69;5054247;28;20035;-91
2022/10/04 13:06:55;;;;;;;2.08;1.23;;;;;;;17.61;43.43;99780.03;5038391;28;20032;-96
2022/10/04 13:17:12;;;;;;;1.88;1.30;;;;;;;17.56;44.09;99786.41;4974347;28;20063;-96
2022/10/04 13:20:15;;;;;;;1.83;1.23;;;;;;;17.39;44.74;99784.31;5028119;28;20038;-96
2022/10/04 13:28:30;;;;;;;1.65;1.15;;;;;;;17.37;43.96;99762.81;5568163;22;20060;-96
2022/10/04 13:40:05;;;;;;;2.40;1.20;;;;;;;17.78;42.68;99769.28;5024004;22;20070;-92
2022/10/04 13:42:47;;;;;;;1.70;1.20;;;;;;;17.78;43.09;99769.28;4975316;28;20049;-96
2022/10/04 13:45:51;;;;;;;5.80;3.38;;;;;;;17.64;44.91;99768.50;4991375;28;20030;-95
2022/10/04 13:48:45;;;;;;;2.50;1.23;;;;;;;17.78;43.37;99785.63;4989392;28;20068;-96
2022/10/04 13:56:35;;;;;;;2.45;1.50;;;;;;;17.79;43.27;99787.25;4994480;28;20045;-95
2022/10/04 13:57:58;;;;;;;2.50;1.50;;;;;;;17.60;44.68;99801.03;5007098;28;20120;-94
2022/10/04 14:00:27;;;;;;;1.90;1.50;;;;;;;17.41;45.62;99803.88;4998717;28;20030;-94
2022/10/04 14:03:13;;;;;;;3.30;1.73;;;;;;;17.51;44.30;99809.06;5002170;28;20038;-95